Time;durP1;ratioP1;P1;durP2;ratioP2;P2;SDS_P1;SDS_P2;PMS_P1;PMS_P2;Temp;Humidity;BMP_temperature;BMP_pressure;BME280_temperature;BME280_humidity;BME280_pressure;Samples;Min_cycle;Max_cycle;Signal;HPM_P1;HPM_P2
2022/11/21 00:01:51;;;;;;;15.15;2.40;;;7.20;99.90;;;;;;5060567;28;20032;-71
2022/11/21 00:04:16;;;;;;;12.25;2.25;;;7.20;99.90;;;;;;5067128;28;20040;-70
2022/11/21 00:06:42;;;;;;;10.45;2.15;;;7.20;99.90;;;;;;5068061;28;20117;-71
2022/11/21 00:09:07;;;;;;;11.70;2.10;;;7.10;99.90;;;;;;5068729;28;20032;-70
2022/11/21 00:11:33;;;;;;;12.05;2.25;;;7.10;99.90;;;;;;5068679;28;20117;-70
2022/11/21 00:13:58;;;;;;;9.95;1.70;;;7.20;99.90;;;;;;5061030;28;20454;-70
2022/11/21 00:16:24;;;;;;;10.70;1.92;;;7.10;99.90;;;;;;5048931;28;20127;-70
2022/11/21 00:18:50;;;;;;;11.40;2.15;;;7.10;99.90;;;;;;5040730;28;20766;-70
2022/11/21 00:21:17;;;;;;;16.25;2.78;;;7.10;99.90;;;;;;5068291;28;20039;-71
2022/11/21 00:23:44;;;;;;;11.32;2.58;;;7.00;99.90;;;;;;5064786;28;20118;-69
2022/11/21 00:26:11;;;;;;;12.05;2.05;;;6.90;99.90;;;;;;5067614;28;20954;-70
2022/11/21 00:28:37;;;;;;;12.98;1.83;;;6.80;99.90;;;;;;5047291;28;20039;-71
2022/11/21 00:31:03;;;;;;;21.23;3.38;;;6.80;99.90;;;;;;5066485;28;20028;-71
2022/11/21 00:33:29;;;;;;;14.75;2.65;;;6.80;99.90;;;;;;5066780;28;20035;-70
2022/11/21 00:35:55;;;;;;;11.52;2.15;;;6.80;99.90;;;;;;5067334;28;20044;-70
2022/11/21 00:38:23;;;;;;;15.75;2.70;;;6.90;99.90;;;;;;5062193;28;20086;-71
2022/11/21 00:40:48;;;;;;;15.57;2.30;;;6.90;99.90;;;;;;5064034;28;20024;-70
2022/11/21 00:43:14;;;;;;;13.60;2.72;;;7.00;99.90;;;;;;5062083;28;20559;-70
2022/11/21 00:45:40;;;;;;;11.60;2.03;;;7.00;99.90;;;;;;5067684;28;20032;-70
2022/11/21 00:48:05;;;;;;;16.17;2.75;;;7.10;99.90;;;;;;5047838;28;20028;-70
2022/11/21 00:50:31;;;;;;;14.95;2.22;;;7.10;99.90;;;;;;5046650;28;20074;-71
2022/11/21 00:52:57;;;;;;;11.25;2.53;;;7.00;99.90;;;;;;5067420;28;20036;-71
2022/11/21 00:55:24;;;;;;;12.18;2.15;;;7.00;99.90;;;;;;5066744;28;20111;-69
2022/11/21 00:57:50;;;;;;;14.77;2.40;;;7.00;99.90;;;;;;5064744;28;20028;-70
2022/11/21 01:00:17;;;;;;;14.20;2.90;;;7.00;99.90;;;;;;5056268;28;20087;-71
2022/11/21 01:02:43;;;;;;;13.52;2.30;;;6.90;99.90;;;;;;5049004;28;20061;-71
2022/11/21 01:05:08;;;;;;;14.35;2.83;;;6.90;99.90;;;;;;5046821;28;20024;-69
2022/11/21 01:07:34;;;;;;;14.07;2.55;;;6.90;99.90;;;;;;5064554;28;20035;-70
2022/11/21 01:10:00;;;;;;;14.60;2.45;;;6.90;99.90;;;;;;5063094;28;20085;-70
2022/11/21 01:12:25;;;;;;;18.48;2.67;;;6.80;99.90;;;;;;5060463;28;20032;-69
2022/11/21 01:14:51;;;;;;;10.60;2.60;;;6.80;99.90;;;;;;5060863;28;20074;-71
2022/11/21 01:17:17;;;;;;;13.98;2.22;;;6.80;99.90;;;;;;5065579;28;20119;-72
2022/11/21 01:19:42;;;;;;;12.10;2.55;;;6.80;99.90;;;;;;5065482;28;20037;-71
2022/11/21 01:22:08;;;;;;;15.93;2.78;;;6.80;99.90;;;;;;5065896;28;20028;-71
2022/11/21 01:24:33;;;;;;;13.60;2.40;;;6.80;99.90;;;;;;5048120;28;20024;-71
2022/11/21 01:26:59;;;;;;;20.55;2.50;;;6.80;99.90;;;;;;5048704;28;20060;-71
2022/11/21 01:29:26;;;;;;;12.73;2.50;;;6.80;99.90;;;;;;5048010;28;20028;-71
2022/11/21 01:31:51;;;;;;;11.80;2.10;;;6.70;99.90;;;;;;5067467;28;20624;-71
2022/11/21 01:34:17;;;;;;;15.43;2.63;;;6.60;99.90;;;;;;5067571;28;20115;-71
2022/11/21 01:36:43;;;;;;;8.77;2.53;;;6.50;99.90;;;;;;5047740;28;20118;-71
2022/11/21 01:39:10;;;;;;;10.88;2.22;;;6.40;99.90;;;;;;5066079;28;20047;-71
2022/11/21 01:41:39;;;;;;;14.55;2.75;;;6.30;99.90;;;;;;5047252;28;20052;-71
2022/11/21 01:44:23;;;;;;;9.30;2.25;;;6.30;99.90;;;;;;5068046;28;20040;-70
2022/11/21 01:46:49;;;;;;;13.60;2.60;;;6.20;99.90;;;;;;5057177;28;20029;-70
2022/11/21 01:49:26;;;;;;;13.27;2.60;;;6.10;99.90;;;;;;5062344;28;20534;-70
2022/11/21 01:52:12;;;;;;;12.77;3.13;;;6.00;99.90;;;;;;5065933;28;20556;-71
2022/11/21 01:54:46;;;;;;;10.48;2.20;;;5.90;99.90;;;;;;5067366;28;20386;-71
2022/11/21 01:57:27;;;;;;;13.27;2.03;;;5.90;99.90;;;;;;5067117;28;20029;-71
2022/11/21 02:00:00;;;;;;;11.43;1.95;;;5.80;99.90;;;;;;5060031;28;20032;-71
2022/11/21 02:02:32;;;;;;;14.05;3.03;;;5.70;99.90;;;;;;5065726;28;20028;-71
2022/11/21 02:04:59;;;;;;;11.05;2.25;;;5.70;99.90;;;;;;5045179;28;20124;-71
2022/11/21 02:07:27;;;;;;;13.57;2.60;;;5.70;99.90;;;;;;5064629;28;20064;-70
2022/11/21 02:09:59;;;;;;;8.98;2.30;;;5.60;99.90;;;;;;5044704;28;20957;-71
2022/11/21 02:12:34;;;;;;;15.10;2.22;;;5.60;99.90;;;;;;5060626;28;20039;-70
2022/11/21 02:15:00;;;;;;;13.75;2.55;;;5.60;99.90;;;;;;5064999;28;20245;-70
2022/11/21 02:17:32;;;;;;;12.05;1.80;;;5.50;99.90;;;;;;5065971;28;20032;-70
2022/11/21 02:19:59;;;;;;;13.88;2.75;;;5.50;99.90;;;;;;5063723;28;20081;-70
2022/11/21 02:22:30;;;;;;;11.75;1.90;;;5.50;99.90;;;;;;5065170;28;20926;-70
2022/11/21 02:25:07;;;;;;;13.48;2.67;;;5.50;99.90;;;;;;5064972;28;20100;-70
2022/11/21 02:27:33;;;;;;;13.38;2.20;;;5.40;99.90;;;;;;5061434;28;20107;-70
2022/11/21 02:30:00;;;;;;;10.23;1.75;;;5.40;99.90;;;;;;5050136;28;20517;-70
2022/11/21 02:32:35;;;;;;;12.93;2.33;;;5.40;99.90;;;;;;5064969;28;20032;-71
2022/11/21 02:35:01;;;;;;;9.73;2.42;;;5.30;99.90;;;;;;5066185;28;20776;-71
2022/11/21 02:37:28;;;;;;;14.65;2.90;;;5.30;99.90;;;;;;5047865;28;20058;-71
2022/11/21 02:39:54;;;;;;;11.93;2.10;;;5.30;99.90;;;;;;5047675;28;20031;-70
2022/11/21 02:42:24;;;;;;;11.23;2.30;;;5.30;99.90;;;;;;5045629;28;20442;-70
2022/11/21 02:45:19;;;;;;;9.05;2.03;;;5.30;99.90;;;;;;5062893;28;20028;-71
2022/11/21 02:47:49;;;;;;;15.38;2.83;;;5.20;99.90;;;;;;5048352;28;20036;-70
2022/11/21 02:50:27;;;;;;;8.75;2.35;;;5.20;99.90;;;;;;5065754;28;20043;-70
2022/11/21 02:52:54;;;;;;;9.13;2.00;;;5.20;99.90;;;;;;5045511;28;20168;-71
2022/11/21 02:55:20;;;;;;;8.75;1.90;;;5.20;99.90;;;;;;5066343;28;20028;-70
2022/11/21 02:57:46;;;;;;;12.93;2.13;;;5.20;99.90;;;;;;5069255;28;20482;-71
2022/11/21 03:00:12;;;;;;;9.52;2.33;;;5.20;99.90;;;;;;5069985;28;20028;-70
2022/11/21 03:02:37;;;;;;;10.27;2.10;;;5.20;99.90;;;;;;5067324;28;20110;-71
2022/11/21 03:05:05;;;;;;;12.70;2.47;;;5.20;99.90;;;;;;5069361;28;20071;-70
2022/11/21 03:07:31;;;;;;;13.02;2.45;;;5.20;99.90;;;;;;5065384;28;20028;-69
2022/11/21 03:09:56;;;;;;;12.27;2.63;;;5.10;99.90;;;;;;5049987;28;20024;-71
2022/11/21 03:12:22;;;;;;;7.97;1.98;;;5.10;99.90;;;;;;5050618;28;20037;-71
2022/11/21 03:14:47;;;;;;;11.50;2.42;;;5.10;99.90;;;;;;5067198;28;20032;-70
2022/11/21 03:17:13;;;;;;;12.10;2.47;;;5.10;99.90;;;;;;5068569;28;20043;-70
2022/11/21 03:19:38;;;;;;;9.52;2.00;;;5.10;99.90;;;;;;5048114;28;20086;-69
2022/11/21 03:22:04;;;;;;;11.45;2.60;;;5.10;99.90;;;;;;5067305;28;20028;-71
2022/11/21 03:24:30;;;;;;;9.57;1.90;;;5.10;99.90;;;;;;5065970;28;20036;-71
2022/11/21 03:26:55;;;;;;;13.63;2.33;;;5.10;99.90;;;;;;5067177;28;20036;-71
2022/11/21 03:29:21;;;;;;;13.13;2.10;;;5.00;99.90;;;;;;5069330;28;20119;-71
2022/11/21 03:31:47;;;;;;;10.95;2.20;;;5.00;99.90;;;;;;5071889;28;20024;-71
2022/11/21 03:34:12;;;;;;;12.57;2.50;;;5.00;99.90;;;;;;5047704;28;20505;-71
2022/11/21 03:36:38;;;;;;;11.07;2.35;;;5.00;99.90;;;;;;5066148;28;20048;-71
2022/11/21 03:39:04;;;;;;;13.73;2.38;;;5.00;99.90;;;;;;5050211;28;20432;-71
2022/11/21 03:41:30;;;;;;;10.18;2.17;;;5.00;99.90;;;;;;5067837;28;20036;-72
2022/11/21 03:44:07;;;;;;;14.35;2.45;;;4.90;99.90;;;;;;5064383;28;20042;-71
2022/11/21 03:46:35;;;;;;;11.52;1.83;;;4.90;99.90;;;;;;5068429;28;20115;-72
2022/11/21 03:49:01;;;;;;;10.05;2.08;;;4.90;99.90;;;;;;5067615;28;20033;-70
2022/11/21 03:51:27;;;;;;;12.00;2.22;;;4.90;99.90;;;;;;5066884;28;20028;-70
2022/11/21 03:53:53;;;;;;;11.35;2.50;;;4.90;99.90;;;;;;5065956;28;20029;-71
2022/11/21 03:56:20;;;;;;;13.30;2.50;;;4.90;99.90;;;;;;5065980;28;20035;-72
2022/11/21 03:58:45;;;;;;;13.80;2.33;;;5.00;99.90;;;;;;5071429;28;20043;-72
2022/11/21 04:01:14;;;;;;;14.02;2.65;;;5.00;99.90;;;;;;5068298;28;20036;-72
2022/11/21 04:03:44;;;;;;;9.35;2.15;;;5.00;99.90;;;;;;5064419;28;20037;-72
2022/11/21 04:06:11;;;;;;;13.15;2.55;;;5.00;99.90;;;;;;5068494;28;20025;-71
2022/11/21 04:08:37;;;;;;;11.13;2.30;;;5.00;99.90;;;;;;5067668;28;20071;-71
2022/11/21 04:11:02;;;;;;;10.10;2.55;;;5.00;99.90;;;;;;5066900;28;20664;-71
2022/11/21 04:13:28;;;;;;;11.07;1.98;;;5.00;99.90;;;;;;5066222;28;20132;-72
2022/11/21 04:15:54;;;;;;;9.25;2.20;;;5.00;99.90;;;;;;5066746;28;20065;-72
2022/11/21 04:18:20;;;;;;;14.02;2.47;;;5.10;99.90;;;;;;5067464;28;20036;-71
2022/11/21 04:20:45;;;;;;;11.52;2.60;;;5.10;99.90;;;;;;5067612;28;20459;-71
2022/11/21 04:23:11;;;;;;;13.57;2.53;;;5.10;99.90;;;;;;5067010;28;20035;-72
2022/11/21 04:25:36;;;;;;;11.05;2.63;;;5.20;99.90;;;;;;5064068;28;20485;-71
2022/11/21 04:28:03;;;;;;;11.82;2.55;;;5.20;99.90;;;;;;5049662;28;20033;-71
2022/11/21 04:30:31;;;;;;;10.07;2.25;;;5.20;99.90;;;;;;5049131;28;20029;-71
2022/11/21 04:32:56;;;;;;;12.00;2.22;;;5.20;99.90;;;;;;5048781;28;20119;-72
2022/11/21 04:35:23;;;;;;;14.77;2.28;;;5.20;99.90;;;;;;5066808;28;20448;-72
2022/11/21 04:37:50;;;;;;;13.10;2.17;;;5.20;99.90;;;;;;5043127;28;20086;-72
2022/11/21 04:40:16;;;;;;;13.65;2.50;;;5.20;99.90;;;;;;5064214;28;20028;-71
2022/11/21 04:42:45;;;;;;;7.82;2.03;;;5.20;99.90;;;;;;5046460;28;20021;-70
2022/11/21 04:45:11;;;;;;;11.60;2.25;;;5.30;99.90;;;;;;5064880;28;20040;-71
2022/11/21 04:47:44;;;;;;;12.98;2.88;;;5.30;99.90;;;;;;5068481;28;20221;-72
2022/11/21 04:50:12;;;;;;;10.57;2.80;;;5.30;99.90;;;;;;5067711;28;20032;-71
2022/11/21 04:52:38;;;;;;;10.75;2.72;;;5.30;99.90;;;;;;5066429;28;20044;-72
2022/11/21 04:55:04;;;;;;;15.63;3.15;;;5.20;99.90;;;;;;5067014;28;20037;-72
2022/11/21 04:57:31;;;;;;;8.98;2.72;;;5.20;99.90;;;;;;5066652;28;20513;-72
2022/11/21 04:59:56;;;;;;;12.88;2.67;;;5.10;99.90;;;;;;5067392;28;20591;-72
2022/11/21 05:02:23;;;;;;;9.05;2.25;;;5.10;99.90;;;;;;5067948;28;20024;-71
2022/11/21 05:04:48;;;;;;;12.63;2.53;;;5.10;99.90;;;;;;5063796;28;20036;-71
2022/11/21 05:07:14;;;;;;;15.88;2.83;;;5.00;99.90;;;;;;5066726;28;20047;-71
2022/11/21 05:09:40;;;;;;;14.57;3.10;;;5.00;99.90;;;;;;5047594;28;20025;-71
2022/11/21 05:14:50;;;;;;;14.13;3.17;;;5.00;99.90;;;;;;5066674;28;20563;-71
2022/11/21 05:17:16;;;;;;;10.00;2.60;;;5.00;99.90;;;;;;5049009;28;20041;-72
2022/11/21 05:19:41;;;;;;;13.95;3.30;;;4.90;99.90;;;;;;5057517;28;20450;-71
2022/11/21 05:22:07;;;;;;;13.20;2.92;;;4.90;99.90;;;;;;5048172;28;20027;-71
2022/11/21 05:24:32;;;;;;;14.85;2.75;;;4.90;99.90;;;;;;5054349;28;20079;-70
2022/11/21 05:26:58;;;;;;;15.50;2.88;;;4.90;99.90;;;;;;5065829;28;20028;-71
2022/11/21 05:29:24;;;;;;;10.60;2.50;;;4.90;99.90;;;;;;5062110;28;20033;-71
2022/11/21 05:31:49;;;;;;;11.23;2.65;;;4.90;99.90;;;;;;5047344;28;20076;-71
2022/11/21 05:34:15;;;;;;;12.05;2.72;;;4.90;99.90;;;;;;5041686;28;20410;-71
2022/11/21 05:36:40;;;;;;;12.57;2.65;;;4.90;99.90;;;;;;5043207;28;20032;-70
2022/11/21 05:39:06;;;;;;;11.10;2.92;;;4.90;99.90;;;;;;5064084;28;20055;-71
2022/11/21 05:41:32;;;;;;;13.30;2.60;;;4.90;99.90;;;;;;5065818;28;20040;-71
2022/11/21 05:43:57;;;;;;;12.57;2.70;;;4.90;99.90;;;;;;5037482;28;20131;-71
2022/11/21 05:46:25;;;;;;;11.00;2.60;;;5.00;99.90;;;;;;5066754;28;20035;-71
2022/11/21 05:48:52;;;;;;;11.23;2.60;;;4.90;99.90;;;;;;5046628;28;20029;-71
2022/11/21 05:51:18;;;;;;;11.15;2.33;;;5.00;99.90;;;;;;5065136;28;20040;-71
2022/11/21 05:53:45;;;;;;;15.57;2.67;;;5.00;99.90;;;;;;5065413;28;20044;-71
2022/11/21 05:56:13;;;;;;;11.00;2.70;;;5.00;99.90;;;;;;5065546;28;20043;-71
2022/11/21 05:58:39;;;;;;;11.07;3.47;;;5.00;99.90;;;;;;5066054;28;20044;-72
2022/11/21 06:01:06;;;;;;;11.88;3.17;;;5.10;99.90;;;;;;5065720;28;20036;-71
2022/11/21 06:03:37;;;;;;;8.32;2.75;;;5.10;99.90;;;;;;5064858;28;20056;-71
2022/11/21 06:06:12;;;;;;;12.98;2.83;;;5.10;99.90;;;;;;5061040;28;20078;-70
2022/11/21 06:08:43;;;;;;;18.48;3.08;;;5.20;99.90;;;;;;5063471;28;20630;-71
2022/11/21 06:11:12;;;;;;;12.85;2.50;;;5.30;99.90;;;;;;5047498;28;20469;-71
2022/11/21 06:13:38;;;;;;;12.30;2.70;;;5.30;99.90;;;;;;5064480;28;20175;-71
2022/11/21 06:16:05;;;;;;;14.38;2.72;;;5.30;99.90;;;;;;5064436;28;20078;-70
2022/11/21 06:18:37;;;;;;;15.70;2.75;;;5.40;99.90;;;;;;5057987;28;20016;-70
2022/11/21 06:21:20;;;;;;;14.05;2.92;;;5.40;99.90;;;;;;5065080;28;20103;-69
2022/11/21 06:23:46;;;;;;;15.45;3.80;;;5.40;99.90;;;;;;5044339;28;20086;-71
2022/11/21 06:26:15;;;;;;;9.88;2.80;;;5.50;99.90;;;;;;5061934;28;20032;-71
2022/11/21 06:28:41;;;;;;;14.05;3.17;;;5.50;99.90;;;;;;5055530;28;20037;-70
2022/11/21 06:31:09;;;;;;;16.38;2.70;;;5.60;99.90;;;;;;5057311;28;20025;-71
2022/11/21 06:33:35;;;;;;;16.00;3.28;;;5.60;99.90;;;;;;5061722;28;20799;-70
2022/11/21 06:36:06;;;;;;;16.45;3.28;;;5.60;99.90;;;;;;5060124;28;20133;-69
2022/11/21 06:38:32;;;;;;;9.90;2.92;;;5.60;99.90;;;;;;5064596;28;20112;-70
2022/11/21 06:41:03;;;;;;;12.98;2.95;;;5.60;99.90;;;;;;5064723;28;20128;-71
2022/11/21 06:43:29;;;;;;;15.43;3.00;;;5.70;99.90;;;;;;5064559;28;20482;-71
2022/11/21 06:45:55;;;;;;;14.88;3.85;;;5.70;99.90;;;;;;5064244;28;20039;-71
2022/11/21 06:48:21;;;;;;;9.85;2.88;;;5.70;99.90;;;;;;5064631;28;20025;-72
2022/11/21 06:50:47;;;;;;;18.45;3.45;;;5.70;99.90;;;;;;5065516;28;20085;-72
2022/11/21 06:53:12;;;;;;;13.07;2.85;;;5.70;99.90;;;;;;5058214;28;20505;-73
2022/11/21 06:55:38;;;;;;;10.68;2.47;;;5.70;99.90;;;;;;5045090;28;20063;-72
2022/11/21 06:58:03;;;;;;;16.75;5.78;;;5.80;99.90;;;;;;5063350;28;20541;-72
2022/11/21 07:00:29;;;;;;;16.70;2.97;;;5.80;99.90;;;;;;5064429;28;20425;-70
2022/11/21 07:03:02;;;;;;;15.07;2.80;;;5.90;99.90;;;;;;5060578;28;20104;-71
2022/11/21 07:05:28;;;;;;;15.90;2.72;;;5.90;99.90;;;;;;5042288;28;20024;-72
2022/11/21 07:07:58;;;;;;;14.68;2.60;;;5.90;99.90;;;;;;5059768;28;20060;-72
2022/11/21 07:10:24;;;;;;;;;;;5.90;99.90;;;;;;5045962;28;20082;-72
2022/11/21 07:15:34;;;;;;;13.82;2.47;;;6.10;99.90;;;;;;5063933;28;20039;-73
2022/11/21 07:18:00;;;;;;;13.23;3.30;;;6.20;99.90;;;;;;5063176;28;20028;-70
2022/11/21 07:20:26;;;;;;;14.57;2.83;;;6.20;99.90;;;;;;5064003;28;20035;-72
2022/11/21 07:22:55;;;;;;;15.40;3.00;;;6.30;99.90;;;;;;5064078;28;20025;-70
2022/11/21 07:25:21;;;;;;;12.80;2.63;;;6.30;99.90;;;;;;5042965;28;20036;-71
2022/11/21 07:27:47;;;;;;;13.98;3.13;;;6.30;99.90;;;;;;5045538;28;20028;-72
2022/11/21 07:30:13;;;;;;;12.82;2.67;;;6.30;99.90;;;;;;5046928;28;20035;-70
2022/11/21 07:32:39;;;;;;;13.60;2.85;;;6.40;99.90;;;;;;5066997;28;20072;-72
2022/11/21 07:35:05;;;;;;;15.07;2.75;;;6.30;99.90;;;;;;5049000;28;20032;-72
2022/11/21 07:37:31;;;;;;;13.68;3.45;;;6.30;99.90;;;;;;5066173;28;20057;-72
2022/11/21 07:39:56;;;;;;;16.60;3.28;;;6.40;99.90;;;;;;5068380;28;20115;-72
2022/11/21 07:42:22;;;;;;;13.23;3.28;;;6.40;99.90;;;;;;5068784;28;20036;-71
2022/11/21 07:44:47;;;;;;;16.00;3.20;;;6.40;99.90;;;;;;5062543;28;20040;-71
2022/11/21 07:47:13;;;;;;;18.25;3.47;;;6.40;99.90;;;;;;5042771;28;20036;-72
2022/11/21 07:49:39;;;;;;;15.65;3.22;;;6.40;99.90;;;;;;5070122;28;20467;-72
2022/11/21 07:52:04;;;;;;;15.77;2.80;;;6.40;99.90;;;;;;5069450;28;20029;-71
2022/11/21 07:54:30;;;;;;;12.30;2.53;;;6.40;99.90;;;;;;5047027;28;20674;-72
2022/11/21 07:56:55;;;;;;;12.48;2.92;;;6.50;99.90;;;;;;5062293;28;20041;-70
2022/11/21 07:59:21;;;;;;;15.35;2.85;;;6.50;99.90;;;;;;5065238;28;20107;-72
2022/11/21 08:01:46;;;;;;;16.17;3.83;;;6.60;99.90;;;;;;5063330;28;20028;-72
2022/11/21 08:04:12;;;;;;;14.27;3.08;;;6.60;99.90;;;;;;5067044;28;20063;-71
2022/11/21 08:06:38;;;;;;;12.18;2.63;;;6.60;99.90;;;;;;5065929;28;20063;-72
2022/11/21 08:09:03;;;;;;;14.60;2.80;;;6.70;99.90;;;;;;5066966;28;20398;-72
2022/11/21 08:11:31;;;;;;;13.07;2.78;;;6.70;99.90;;;;;;5046330;28;20064;-72
2022/11/21 08:13:57;;;;;;;20.35;3.80;;;6.80;99.90;;;;;;5068601;28;20056;-71
2022/11/21 08:16:26;;;;;;;13.00;2.67;;;6.80;99.90;;;;;;5071207;28;20868;-72
2022/11/21 08:18:52;;;;;;;15.43;3.40;;;6.80;99.90;;;;;;5066158;28;20030;-72
2022/11/21 08:21:18;;;;;;;15.02;3.05;;;6.90;99.90;;;;;;5064324;28;20105;-72
2022/11/21 08:23:44;;;;;;;18.63;3.42;;;7.00;99.90;;;;;;5050166;28;20402;-71
2022/11/21 08:26:09;;;;;;;18.52;3.47;;;7.10;99.90;;;;;;5068817;28;20070;-72
2022/11/21 08:28:35;;;;;;;14.73;3.80;;;7.10;99.90;;;;;;5068850;28;20495;-72
2022/11/21 08:31:04;;;;;;;19.52;3.47;;;7.20;99.90;;;;;;5068599;28;20020;-72
2022/11/21 08:33:30;;;;;;;21.40;4.05;;;7.30;99.90;;;;;;5068661;28;20037;-71
2022/11/21 08:35:56;;;;;;;18.80;4.40;;;7.30;99.90;;;;;;5050757;28;20089;-70
2022/11/21 08:38:22;;;;;;;29.02;5.25;;;7.50;99.90;;;;;;5050974;28;20555;-72
2022/11/21 08:42:01;;;;;;;28.08;4.10;;;7.80;99.90;;;;;;5068668;28;20033;-72
2022/11/21 08:43:33;;;;;;;20.50;4.65;;;8.20;99.90;;;;;;5067792;28;20120;-72
2022/11/21 08:45:58;;;;;;;23.02;3.55;;;8.50;99.90;;;;;;5068913;28;20104;-72
2022/11/21 08:48:24;;;;;;;25.15;4.13;;;8.90;99.90;;;;;;5068902;28;20036;-73
2022/11/21 08:50:49;;;;;;;25.05;4.10;;;9.20;99.90;;;;;;5068219;28;20035;-71
2022/11/21 08:53:15;;;;;;;20.98;3.92;;;9.40;99.90;;;;;;5068337;28;20441;-71
2022/11/21 08:55:40;;;;;;;22.13;3.30;;;9.70;99.90;;;;;;5050941;28;20032;-72
2022/11/21 08:58:06;;;;;;;23.65;3.58;;;9.90;99.90;;;;;;5050744;28;20398;-70
2022/11/21 09:00:31;;;;;;;12.73;3.00;;;10.10;99.90;;;;;;5068576;28;20107;-71
2022/11/21 09:02:57;;;;;;;24.05;3.05;;;10.30;99.90;;;;;;5068558;28;20032;-72
2022/11/21 09:05:23;;;;;;;21.75;4.03;;;10.50;99.90;;;;;;5068002;28;20082;-73
2022/11/21 09:07:56;;;;;;;20.83;2.90;;;10.60;99.90;;;;;;5067868;28;20379;-71
2022/11/21 09:10:21;;;;;;;20.70;3.42;;;10.80;99.90;;;;;;5068467;28;20029;-73
2022/11/21 09:12:47;;;;;;;19.85;3.75;;;10.90;99.90;;;;;;5050255;28;20426;-73
2022/11/21 09:18:03;;;;;;;20.95;3.55;;;11.00;99.90;;;;;;5067582;28;20517;-72
2022/11/21 09:20:37;;;;;;;25.40;4.28;;;11.00;99.90;;;;;;5067950;28;20029;-71
2022/11/21 09:23:04;;;;;;;19.88;3.60;;;11.10;99.90;;;;;;5049682;28;20382;-72
2022/11/21 09:25:29;;;;;;;20.02;3.17;;;11.10;99.90;;;;;;5049402;28;20032;-72
2022/11/21 09:27:59;;;;;;;18.60;2.53;;;11.00;99.90;;;;;;5067672;28;20040;-72
2022/11/21 09:30:24;;;;;;;22.85;4.10;;;11.10;99.90;;;;;;5067653;28;20454;-71
2022/11/21 09:32:50;;;;;;;20.58;3.28;;;11.10;99.90;;;;;;5067309;28;20032;-71
2022/11/21 09:35:15;;;;;;;16.27;2.65;;;11.10;99.90;;;;;;5067077;28;20049;-71
2022/11/21 09:37:41;;;;;;;18.83;3.05;;;11.10;99.90;;;;;;5065974;28;20085;-71
2022/11/21 09:40:14;;;;;;;23.35;3.75;;;11.20;99.90;;;;;;5067990;28;20020;-70
2022/11/21 09:42:43;;;;;;;23.92;3.72;;;11.20;99.90;;;;;;5067460;28;20035;-71
2022/11/21 09:45:11;;;;;;;18.65;3.38;;;11.20;99.90;;;;;;5067454;28;20036;-70
2022/11/21 09:47:55;;;;;;;20.85;3.45;;;11.20;99.90;;;;;;5067593;28;20161;-71
2022/11/21 09:50:27;;;;;;;22.73;3.03;;;11.20;99.90;;;;;;5067904;28;20111;-72
2022/11/21 09:53:04;;;;;;;18.65;3.50;;;11.10;99.90;;;;;;5067263;28;20394;-70
2022/11/21 09:55:36;;;;;;;25.85;3.50;;;11.00;99.90;;;;;;5067003;28;20706;-71
2022/11/21 09:58:04;;;;;;;17.70;3.67;;;10.90;99.90;;;;;;5067582;28;20024;-72
2022/11/21 10:00:31;;;;;;;22.05;4.40;;;10.80;99.90;;;;;;5068018;28;20021;-72
2022/11/21 10:02:58;;;;;;;24.52;4.80;;;10.70;99.90;;;;;;5067483;28;20033;-72
2022/11/21 10:05:51;;;;;;;24.33;4.97;;;10.60;99.90;;;;;;5048891;28;20025;-72
2022/11/21 10:08:41;;;;;;;25.92;4.20;;;10.50;99.90;;;;;;5066940;28;20417;-71
2022/11/21 10:11:10;;;;;;;20.85;3.95;;;10.40;99.90;;;;;;5067753;28;20120;-73
2022/11/21 10:13:54;;;;;;;26.02;4.72;;;10.40;99.90;;;;;;5067397;28;20456;-72
2022/11/21 10:16:50;;;;;;;22.10;4.53;;;10.40;99.90;;;;;;5066598;28;20406;-72
2022/11/21 10:19:36;;;;;;;22.38;4.82;;;10.40;99.90;;;;;;5067033;28;20062;-72
2022/11/21 10:22:20;;;;;;;24.55;4.20;;;10.40;99.90;;;;;;5067004;28;20020;-73
2022/11/21 10:24:56;;;;;;;27.52;4.80;;;10.40;99.90;;;;;;5066534;28;20089;-70
2022/11/21 10:27:27;;;;;;;27.27;4.03;;;10.40;99.90;;;;;;5066686;28;20101;-70
2022/11/21 10:30:05;;;;;;;29.50;5.18;;;10.40;99.90;;;;;;5066083;28;20032;-72
2022/11/21 10:32:42;;;;;;;25.42;4.18;;;10.50;99.90;;;;;;5066278;28;20044;-73
2022/11/21 10:35:22;;;;;;;26.65;4.22;;;10.50;99.90;;;;;;5066374;28;20186;-72
2022/11/21 10:37:52;;;;;;;34.30;5.50;;;10.50;99.90;;;;;;5066956;28;20032;-72
2022/11/21 10:40:40;;;;;;;21.27;4.55;;;10.50;99.90;;;;;;5066826;28;20029;-72
2022/11/21 10:46:01;;;;;;;22.17;4.28;;;10.40;99.90;;;;;;5063892;28;20431;-73
2022/11/21 10:48:27;;;;;;;21.00;4.70;;;10.30;99.90;;;;;;5067421;28;20451;-72
2022/11/21 10:50:52;;;;;;;27.63;5.28;;;10.30;99.90;;;;;;5048787;28;20530;-73
2022/11/21 10:56:21;;;;;;;23.73;5.28;;;10.20;99.90;;;;;;5066987;28;20166;-72
2022/11/21 10:58:47;;;;;;;15.77;4.80;;;10.30;99.90;;;;;;5066571;28;20025;-72
2022/11/21 11:01:18;;;;;;;21.88;4.60;;;10.30;99.90;;;;;;5048495;28;20031;-71
2022/11/21 11:03:44;;;;;;;26.58;4.78;;;10.30;99.90;;;;;;5066603;28;20032;-72
2022/11/21 11:06:10;;;;;;;19.67;3.60;;;10.30;99.90;;;;;;5066575;28;20078;-73
2022/11/21 11:08:50;;;;;;;28.40;6.05;;;10.30;99.90;;;;;;5070546;28;20123;-70
2022/11/21 11:11:20;;;;;;;21.65;4.43;;;10.30;99.90;;;;;;5070510;28;20029;-72
2022/11/21 11:14:01;;;;;;;21.77;4.38;;;10.40;99.90;;;;;;5070432;28;20475;-71
2022/11/21 11:16:29;;;;;;;23.67;5.00;;;10.40;99.90;;;;;;5070513;28;20094;-71
2022/11/21 11:18:54;;;;;;;19.45;4.40;;;10.40;99.90;;;;;;5069965;28;20029;-70
2022/11/21 11:21:26;;;;;;;22.33;4.00;;;10.40;99.90;;;;;;5051966;28;20021;-73
2022/11/21 11:23:53;;;;;;;21.48;3.97;;;10.30;99.90;;;;;;5070291;28;20596;-72
2022/11/21 11:26:26;;;;;;;21.08;5.63;;;10.30;99.90;;;;;;5070082;28;20090;-69
2022/11/21 11:28:52;;;;;;;19.45;5.20;;;10.20;99.90;;;;;;5068144;28;20035;-71
2022/11/21 11:31:18;;;;;;;23.70;4.10;;;10.10;99.90;;;;;;5069648;28;20028;-71
2022/11/21 11:33:47;;;;;;;22.83;4.85;;;10.10;99.90;;;;;;5051636;28;20791;-72
2022/11/21 11:36:20;;;;;;;22.40;4.60;;;10.10;99.90;;;;;;5069685;28;20048;-70
2022/11/21 11:38:56;;;;;;;18.25;3.90;;;10.00;99.90;;;;;;5069732;28;20035;-72
2022/11/21 11:47:41;;;;;;;23.42;4.78;;;9.90;99.90;;;;;;5069393;28;20039;-71
2022/11/21 11:50:16;;;;;;;24.48;4.80;;;9.90;99.90;;;;;;5069936;28;20063;-72
2022/11/21 11:52:47;;;;;;;21.58;4.10;;;9.90;99.90;;;;;;5070062;28;20028;-70
2022/11/21 11:55:22;;;;;;;19.73;4.53;;;9.80;99.90;;;;;;5069484;28;20040;-71
2022/11/21 11:57:51;;;;;;;17.85;4.53;;;9.80;99.90;;;;;;5069297;28;20036;-71
2022/11/21 12:00:24;;;;;;;20.35;3.42;;;9.80;99.90;;;;;;5050881;28;20033;-70
2022/11/21 12:03:46;;;;;;;18.38;3.83;;;9.70;99.90;;;;;;5068835;28;20568;-69
2022/11/21 12:06:20;;;;;;;22.13;4.03;;;9.60;99.90;;;;;;4967774;28;20056;-69
2022/11/21 12:08:58;;;;;;;24.25;4.13;;;9.50;99.90;;;;;;4968034;28;20030;-70
2022/11/21 12:18:07;;;;;;;14.95;3.30;;;9.00;99.90;;;;;;5069158;28;20082;-72
2022/11/21 12:20:45;;;;;;;22.00;3.95;;;8.90;99.90;;;;;;5051084;28;20032;-72
2022/11/21 12:23:12;;;;;;;18.40;4.03;;;9.00;99.90;;;;;;5069665;28;20082;-72
2022/11/21 12:26:01;;;;;;;13.85;3.33;;;9.00;99.90;;;;;;5069397;28;20052;-71
2022/11/21 12:28:57;;;;;;;10.27;2.17;;;8.80;99.90;;;;;;5017531;28;20079;-73
2022/11/21 12:31:28;;;;;;;14.60;2.58;;;8.50;99.90;;;;;;5069312;28;20063;-71
2022/11/21 12:34:27;;;;;;;12.48;2.58;;;8.40;99.90;;;;;;5050504;28;20024;-77
2022/11/21 12:37:02;;;;;;;12.27;1.83;;;8.10;99.90;;;;;;5028908;28;20131;-72
2022/11/21 12:39:43;;;;;;;15.27;2.28;;;8.10;99.90;;;;;;5069241;28;20111;-76
2022/11/21 12:42:49;;;;;;;12.38;1.80;;;8.10;99.90;;;;;;5069062;28;20028;-75
2022/11/21 12:45:31;;;;;;;10.85;2.03;;;8.00;99.90;;;;;;5068710;28;20033;-77
2022/11/21 12:54:36;;;;;;;10.25;1.58;;;7.80;99.90;;;;;;5068417;28;20069;-79
2022/11/21 12:57:12;;;;;;;10.10;1.25;;;7.80;99.90;;;;;;5068667;28;20068;-73
2022/11/21 13:00:07;;;;;;;8.50;1.42;;;7.80;99.90;;;;;;5069015;28;20112;-75
2022/11/21 13:02:52;;;;;;;6.38;1.20;;;7.80;99.90;;;;;;5068401;28;20534;-74
2022/11/21 13:05:26;;;;;;;9.05;1.23;;;7.70;99.90;;;;;;5050085;28;20035;-73
2022/11/21 13:07:58;;;;;;;7.53;1.40;;;7.70;99.90;;;;;;5068351;28;20047;-73
2022/11/21 13:10:26;;;;;;;13.45;1.90;;;7.70;99.90;;;;;;5067974;28;20039;-75
2022/11/21 13:13:03;;;;;;;11.73;3.00;;;7.70;99.90;;;;;;5068061;28;20055;-75
2022/11/21 13:15:47;;;;;;;16.10;1.77;;;7.70;99.90;;;;;;5067257;28;20024;-74
2022/11/21 13:18:24;;;;;;;10.35;2.33;;;7.70;99.90;;;;;;5052092;28;20040;-75
2022/11/21 13:20:51;;;;;;;14.35;1.98;;;7.80;99.90;;;;;;5047384;28;20048;-72
2022/11/21 13:23:39;;;;;;;17.75;2.10;;;7.80;99.90;;;;;;5057506;28;20383;-74
2022/11/21 13:26:23;;;;;;;12.93;2.05;;;7.90;99.90;;;;;;5067591;28;20039;-73
2022/11/21 13:28:49;;;;;;;16.27;2.92;;;8.00;99.90;;;;;;5067581;28;20032;-72
2022/11/21 13:31:33;;;;;;;11.48;1.83;;;8.10;99.90;;;;;;5067476;28;20040;-73